Jessica S. Settoon — WDD9545 — position and weather

sailwx.info

Track history (hours):
 
Tides and Currents Weather Stations Pressure Air Temp Water Temp Dewpoint Dewpoint Depression Visibility Wind Speed Wind Dir Waves Ship Positions

Jessica S. Settoon

Owner: Settoon Towing LLC, Houma, LA. More information available from US FCC via Universal Licensing System and Coast Guard Vessel Documentation Center.

Last reported at 2017-Mar-21 11:04 UTC. Time now 2017-Mar-22 22:04 UTC.
Position N 29°34' W 090°57'.

Length 17 m; draft 3 m.

Type: Tug. MMSI: 367312940.

Date/timePositionNaut miles runAvg speedWind from/ knotsBaromVisibWave heightAir tempDewpointWater temp
2017-Mar-21 11:04N 29°34' W 090°57'2 4.1
2017-Mar-21 10:33N 29°33' W 090°55'4 4.3
2017-Mar-21 09:33N 29°32' W 090°50'5 5.0
2017-Mar-21 08:33N 29°34' W 090°44'4 3.8
2017-Mar-21 07:33N 29°37' W 090°42'0 0.5
2017-Mar-21 06:33N 29°37' W 090°41'5 5.3
2017-Mar-21 05:33N 29°35' W 090°36'6 0.2
2017-Mar-19 13:23N 29°34' W 090°28'6 7.2
2017-Mar-19 12:33N 29°35' W 090°35'4 4.1
2017-Mar-19 11:33N 29°36' W 090°40'0 0.0
2017-Mar-19 10:33N 29°36' W 090°40'0 0.0
2017-Mar-19 09:34N 29°36' W 090°40'0 0.0
2017-Mar-19 08:34N 29°36' W 090°40'0 0.0
2017-Mar-19 07:34N 29°36' W 090°40'0 0.0
2017-Mar-19 06:33N 29°36' W 090°40'0 0.0
2017-Mar-19 05:33N 29°36' W 090°40'0 0.0
2017-Mar-19 04:34N 29°36' W 090°40'0 0.0
2017-Mar-19 03:34N 29°36' W 090°40'0 0.0
2017-Mar-19 02:33N 29°36' W 090°40'0 0.0
2017-Mar-19 01:34N 29°36' W 090°40'0 0.0
2017-Mar-19 00:34N 29°36' W 090°40'0 0.0
2017-Mar-18 23:34N 29°36' W 090°40'0 0.0
2017-Mar-18 22:33N 29°36' W 090°40'3 2.6
2017-Mar-18 21:34N 29°37' W 090°42'5 5.1
2017-Mar-18 20:34N 29°33' W 090°46'11 0.7
2017-Mar-18 03:33N 29°35' W 090°58'6 5.4
2017-Mar-18 02:30N 29°32' W 090°53'6 5.9
2017-Mar-18 01:33N 29°32' W 090°46'4 3.8
2017-Mar-18 00:34N 29°35' W 090°43'0 0.0
2017-Mar-17 23:34N 29°35' W 090°43'2 2.2
2017-Mar-17 22:34N 29°36' W 090°41'5 5.2
2017-Mar-17 21:34N 29°35' W 090°36'  
2017-Mar-15 17:32N 29°34' W 090°32'7 6.7
2017-Mar-15 16:33N 29°36' W 090°39'3 3.5
2017-Mar-15 15:33N 29°35' W 090°43'0 0.0
2017-Mar-15 14:33N 29°35' W 090°43'0 0.0
2017-Mar-15 13:33N 29°35' W 090°43'0 0.0
2017-Mar-15 12:33N 29°35' W 090°43'0 0.0
2017-Mar-15 11:33N 29°35' W 090°43'0 0.0
2017-Mar-15 10:33N 29°35' W 090°43'1 1.3
2017-Mar-15 09:33N 29°34' W 090°44'  
Track history (hours):
 
Tides and Currents Weather Stations Pressure Air Temp Water Temp Dewpoint Dewpoint Depression Visibility Wind Speed Wind Dir Waves Ship Positions

Jessica S. Settoon

Owner: Settoon Towing LLC, Houma, LA. More information available from US FCC via Universal Licensing System and Coast Guard Vessel Documentation Center.

Last reported at 2017-Mar-21 11:04 UTC. Time now 2017-Mar-22 22:04 UTC.
Position N 29°34' W 090°57'.

Length 17 m; draft 3 m.

Type: Tug. MMSI: 367312940.

Date/timePositionNaut miles runAvg speedWind from/ knotsBaromVisibWave heightAir tempDewpointWater temp
2017-Mar-21 11:04N 29°34' W 090°57'2 4.1
2017-Mar-21 10:33N 29°33' W 090°55'4 4.3
2017-Mar-21 09:33N 29°32' W 090°50'5 5.0
2017-Mar-21 08:33N 29°34' W 090°44'4 3.8
2017-Mar-21 07:33N 29°37' W 090°42'0 0.5
2017-Mar-21 06:33N 29°37' W 090°41'5 5.3
2017-Mar-21 05:33N 29°35' W 090°36'6 0.2
2017-Mar-19 13:23N 29°34' W 090°28'6 7.2
2017-Mar-19 12:33N 29°35' W 090°35'4 4.1
2017-Mar-19 11:33N 29°36' W 090°40'0 0.0
2017-Mar-19 10:33N 29°36' W 090°40'0 0.0
2017-Mar-19 09:34N 29°36' W 090°40'0 0.0
2017-Mar-19 08:34N 29°36' W 090°40'0 0.0
2017-Mar-19 07:34N 29°36' W 090°40'0 0.0
2017-Mar-19 06:33N 29°36' W 090°40'0 0.0
2017-Mar-19 05:33N 29°36' W 090°40'0 0.0
2017-Mar-19 04:34N 29°36' W 090°40'0 0.0
2017-Mar-19 03:34N 29°36' W 090°40'0 0.0
2017-Mar-19 02:33N 29°36' W 090°40'0 0.0
2017-Mar-19 01:34N 29°36' W 090°40'0 0.0
2017-Mar-19 00:34N 29°36' W 090°40'0 0.0
2017-Mar-18 23:34N 29°36' W 090°40'0 0.0
2017-Mar-18 22:33N 29°36' W 090°40'3 2.6
2017-Mar-18 21:34N 29°37' W 090°42'5 5.1
2017-Mar-18 20:34N 29°33' W 090°46'11 0.7
2017-Mar-18 03:33N 29°35' W 090°58'6 5.4
2017-Mar-18 02:30N 29°32' W 090°53'6 5.9
2017-Mar-18 01:33N 29°32' W 090°46'4 3.8
2017-Mar-18 00:34N 29°35' W 090°43'0 0.0
2017-Mar-17 23:34N 29°35' W 090°43'2 2.2
2017-Mar-17 22:34N 29°36' W 090°41'5 5.2
2017-Mar-17 21:34N 29°35' W 090°36'  
2017-Mar-15 17:32N 29°34' W 090°32'7 6.7
2017-Mar-15 16:33N 29°36' W 090°39'3 3.5
2017-Mar-15 15:33N 29°35' W 090°43'0 0.0
2017-Mar-15 14:33N 29°35' W 090°43'0 0.0
2017-Mar-15 13:33N 29°35' W 090°43'0 0.0
2017-Mar-15 12:33N 29°35' W 090°43'0 0.0
2017-Mar-15 11:33N 29°35' W 090°43'0 0.0
2017-Mar-15 10:33N 29°35' W 090°43'1 1.3
2017-Mar-15 09:33N 29°34' W 090°44'  

Dump ship's entire track history